MV Finola — OULQ2 — position and weather

sailwx.info

Track history (hours):
 
Tides and Currents Weather Stations Pressure Air Temp Water Temp Dewpoint Dewpoint Depression Visibility Wind Speed Wind Dir Waves Ship Positions

MV Finola

Last reported at 2015-Jul-31 04:32 UTC. Time now 2015-Jul-31 05:01 UTC.
Position S 12°29' E 130°50'.

Length 86 m; draft 3.3 m.

Type: Cargo ship. MMSI: 219483000.

Date/timePositionNaut miles runAvg speedWind from/ knotsBaromVisibWave heightAir tempDewpointWater temp
2015-Jul-31 04:32S 12°29' E 130°50'0 0.0
2015-Jul-31 03:32S 12°29' E 130°50'0 0.0
2015-Jul-31 02:32S 12°29' E 130°50'0 0.0
2015-Jul-31 01:33S 12°29' E 130°50'5 4.8
2015-Jul-31 00:33S 12°25' E 130°47'8 7.5
2015-Jul-30 23:33S 12°19' E 130°42'3 3.4
2015-Jul-30 22:33S 12°16' E 130°43'2 1.9
2015-Jul-30 21:33S 12°17' E 130°42'3 3.4
2015-Jul-30 20:33S 12°19' E 130°38'0 0.1
2015-Jul-30 19:33S 12°19' E 130°38'9 8.5
2015-Jul-30 18:33S 12°17' E 130°30'10 9.8
2015-Jul-30 17:31S 12°14' E 130°20'  
2015-Jul-23 17:16N 01°15' E 104°09'811.4
2015-Jul-23 16:33N 01°14' E 104°01'8 8.2
2015-Jul-23 15:33N 01°15' E 103°53'1 0.7
2015-Jul-23 14:33N 01°15' E 103°52'0 0.0
2015-Jul-23 13:33N 01°15' E 103°52'0 0.0
2015-Jul-23 12:33N 01°15' E 103°52'0 0.0
2015-Jul-23 11:24N 01°15' E 103°52'0 0.0
2015-Jul-23 10:21N 01°15' E 103°52'0 0.0
2015-Jul-23 09:24N 01°15' E 103°52'1 1.6
2015-Jul-23 08:33N 01°14' E 103°53'6 6.4
2015-Jul-23 07:33N 01°16' E 103°59'7 6.9
2015-Jul-23 06:32N 01°18' E 104°06'  
Track history (hours):
 
Tides and Currents Weather Stations Pressure Air Temp Water Temp Dewpoint Dewpoint Depression Visibility Wind Speed Wind Dir Waves Ship Positions

MV Finola

Last reported at 2015-Jul-31 04:32 UTC. Time now 2015-Jul-31 05:01 UTC.
Position S 12°29' E 130°50'.

Length 86 m; draft 3.3 m.

Type: Cargo ship. MMSI: 219483000.

Date/timePositionNaut miles runAvg speedWind from/ knotsBaromVisibWave heightAir tempDewpointWater temp
2015-Jul-31 04:32S 12°29' E 130°50'0 0.0
2015-Jul-31 03:32S 12°29' E 130°50'0 0.0
2015-Jul-31 02:32S 12°29' E 130°50'0 0.0
2015-Jul-31 01:33S 12°29' E 130°50'5 4.8
2015-Jul-31 00:33S 12°25' E 130°47'8 7.5
2015-Jul-30 23:33S 12°19' E 130°42'3 3.4
2015-Jul-30 22:33S 12°16' E 130°43'2 1.9
2015-Jul-30 21:33S 12°17' E 130°42'3 3.4
2015-Jul-30 20:33S 12°19' E 130°38'0 0.1
2015-Jul-30 19:33S 12°19' E 130°38'9 8.5
2015-Jul-30 18:33S 12°17' E 130°30'10 9.8
2015-Jul-30 17:31S 12°14' E 130°20'  
2015-Jul-23 17:16N 01°15' E 104°09'811.4
2015-Jul-23 16:33N 01°14' E 104°01'8 8.2
2015-Jul-23 15:33N 01°15' E 103°53'1 0.7
2015-Jul-23 14:33N 01°15' E 103°52'0 0.0
2015-Jul-23 13:33N 01°15' E 103°52'0 0.0
2015-Jul-23 12:33N 01°15' E 103°52'0 0.0
2015-Jul-23 11:24N 01°15' E 103°52'0 0.0
2015-Jul-23 10:21N 01°15' E 103°52'0 0.0
2015-Jul-23 09:24N 01°15' E 103°52'1 1.6
2015-Jul-23 08:33N 01°14' E 103°53'6 6.4
2015-Jul-23 07:33N 01°16' E 103°59'7 6.9
2015-Jul-23 06:32N 01°18' E 104°06'  

Dump ship's entire track history